Terminal Aerodrome Forecast
Issued by NWS Cleveland, OH

Home | Current Version | Previous Version | Graphics & Text | Print | Product List | Glossary Off
Versions: 1 2 3 4 5 6 7 8 9 10 11 12 13 14 15 16

000
FTUS41 KCLE 300537
TAFERI
TAF
KERI 300537Z 3006/0106 09008KT P6SM SCT015 OVC025
     FM301000 10012G20KT P6SM -RA OVC015
     FM301600 10015G25KT P6SM OVC025=

USA.gov is the U.S. government's official web portal to all federal, state and local government web resources and services.